createdAt,value
2018-03-02T00:01:16.750Z,1.52
2018-03-02T00:03:44.132Z,1.40
2018-03-02T00:06:11.536Z,1.35
2018-03-02T00:08:39.086Z,1.38
2018-03-02T00:11:06.514Z,1.34
2018-03-02T00:13:34.035Z,1.29
2018-03-02T00:16:01.416Z,1.11
2018-03-02T00:18:28.856Z,1.01
2018-03-02T00:20:56.290Z,1.07
2018-03-02T00:23:23.690Z,1.02
2018-03-02T00:25:51.209Z,1.01
2018-03-02T00:28:18.600Z,1.03
2018-03-02T00:30:46.038Z,1.01
2018-03-02T00:33:13.496Z,0.98
2018-03-02T00:35:40.884Z,0.98
2018-03-02T00:38:08.323Z,0.93
2018-03-02T00:40:35.721Z,0.83
2018-03-02T00:43:03.216Z,0.79
2018-03-02T00:45:30.599Z,0.73
2018-03-02T00:47:58.038Z,0.74
2018-03-02T00:50:25.474Z,0.77
2018-03-02T00:52:52.869Z,0.78
2018-03-02T00:55:20.259Z,0.80
2018-03-02T00:57:47.665Z,0.78
2018-03-02T01:00:15.112Z,0.73
2018-03-02T01:02:42.529Z,0.66
2018-03-02T01:05:09.967Z,0.65
2018-03-02T01:07:37.403Z,0.68
2018-03-02T01:10:04.841Z,0.71
2018-03-02T01:12:32.397Z,0.71
2018-03-02T01:14:59.799Z,0.73
2018-03-02T01:17:27.414Z,0.68
2018-03-02T01:19:54.868Z,0.62
2018-03-02T01:22:22.266Z,0.62
2018-03-02T01:24:49.997Z,0.55
2018-03-02T01:27:17.384Z,0.53
2018-03-02T01:29:44.789Z,0.54
2018-03-02T01:32:12.695Z,0.51
2018-03-02T01:34:40.092Z,0.53
2018-03-02T01:37:08.213Z,0.57
2018-03-02T01:39:35.869Z,0.56
2018-03-02T01:42:03.263Z,0.46
2018-03-02T01:44:30.713Z,0.38
2018-03-02T01:46:58.121Z,0.42
2018-03-02T01:49:25.539Z,0.46
2018-03-02T01:51:52.971Z,0.45
2018-03-02T01:54:20.376Z,0.46
2018-03-02T01:56:47.832Z,0.46
2018-03-02T01:59:15.565Z,0.45
2018-03-02T02:01:42.965Z,0.46
2018-03-02T02:04:10.432Z,0.48
2018-03-02T02:06:37.911Z,0.52
2018-03-02T02:09:05.348Z,0.58
2018-03-02T02:11:32.784Z,0.65
2018-03-02T02:14:00.179Z,0.69
2018-03-02T02:16:27.636Z,0.60
2018-03-02T02:18:55.041Z,0.60
2018-03-02T02:21:22.427Z,0.58
2018-03-02T02:23:52.722Z,0.61
2018-03-02T02:26:20.114Z,0.70
2018-03-02T02:28:47.507Z,0.69
2018-03-02T02:31:14.926Z,0.72
2018-03-02T02:33:42.324Z,0.70
2018-03-02T02:36:09.768Z,0.64
2018-03-02T02:38:37.152Z,0.68
2018-03-02T02:41:04.608Z,0.68
2018-03-02T02:43:32.119Z,0.68
2018-03-02T02:45:59.552Z,0.71
2018-03-02T02:48:26.973Z,0.66
2018-03-02T02:50:54.379Z,0.62
2018-03-02T02:53:21.773Z,0.67
2018-03-02T02:55:49.203Z,0.66
2018-03-02T02:58:16.710Z,0.65
2018-03-02T03:00:44.112Z,0.56
2018-03-02T03:03:11.573Z,0.57
2018-03-02T03:05:38.970Z,0.59
2018-03-02T03:08:06.388Z,0.53
2018-03-02T03:10:33.779Z,0.46
2018-03-02T03:13:01.680Z,0.40
2018-03-02T03:15:29.315Z,0.46
2018-03-02T03:17:56.806Z,0.51
2018-03-02T03:20:24.266Z,0.40
2018-03-02T03:22:52.383Z,0.38
2018-03-02T03:25:19.825Z,0.41
2018-03-02T03:27:47.263Z,0.45
2018-03-02T03:30:14.685Z,0.37
2018-03-02T03:32:42.211Z,0.37
2018-03-02T03:35:09.652Z,0.42
2018-03-02T03:37:37.073Z,0.38
2018-03-02T03:40:04.544Z,0.30
2018-03-02T03:42:31.999Z,0.22
2018-03-02T03:44:59.539Z,0.26
2018-03-02T03:47:26.944Z,0.34
2018-03-02T03:49:54.338Z,0.35
2018-03-02T03:52:21.744Z,0.28
2018-03-02T03:54:49.139Z,0.24
2018-03-02T03:57:16.896Z,0.24
2018-03-02T03:59:44.290Z,0.25
2018-03-02T04:02:11.687Z,0.30
2018-03-02T04:04:39.149Z,0.34
2018-03-02T04:07:06.551Z,0.30
2018-03-02T04:09:33.982Z,0.26
2018-03-02T04:12:01.371Z,0.20
2018-03-02T04:14:28.875Z,0.32
2018-03-02T04:16:56.268Z,0.31
2018-03-02T04:19:23.894Z,0.27
2018-03-02T04:21:51.391Z,0.34
2018-03-02T04:24:18.824Z,0.36
2018-03-02T04:26:46.256Z,0.35
2018-03-02T04:29:13.680Z,0.34
2018-03-02T04:31:41.118Z,0.38
2018-03-02T04:34:08.544Z,0.29
2018-03-02T04:36:35.999Z,0.27
2018-03-02T04:39:03.627Z,0.20
2018-03-02T04:41:31.056Z,0.18
2018-03-02T04:43:58.632Z,0.23
2018-03-02T04:46:26.068Z,0.22
2018-03-02T04:48:53.501Z,0.25
2018-03-02T04:51:20.891Z,0.30
2018-03-02T04:53:48.323Z,0.23
2018-03-02T04:56:15.756Z,0.26
2018-03-02T04:58:43.222Z,0.27
2018-03-02T05:01:10.787Z,0.30
2018-03-02T05:03:38.197Z,0.30
2018-03-02T05:06:05.635Z,0.33
2018-03-02T05:08:33.019Z,0.29
2018-03-02T05:11:00.465Z,0.37
2018-03-02T05:13:27.881Z,0.37
2018-03-02T05:15:55.270Z,0.33
2018-03-02T05:18:22.666Z,0.34
2018-03-02T05:20:50.107Z,0.32
2018-03-02T05:23:17.495Z,0.31
2018-03-02T05:25:44.896Z,0.26
2018-03-02T05:28:12.282Z,0.26
2018-03-02T05:30:40.037Z,0.34
2018-03-02T05:33:07.480Z,0.29
2018-03-02T05:35:34.908Z,0.26
2018-03-02T05:38:02.300Z,0.31
2018-03-02T05:40:29.743Z,0.34
2018-03-02T05:42:57.219Z,0.35
2018-03-02T05:45:24.648Z,0.29
2018-03-02T05:47:52.080Z,0.28
2018-03-02T05:50:19.511Z,0.23
2018-03-02T05:52:46.940Z,0.23
2018-03-02T05:55:14.358Z,0.27
2018-03-02T05:57:41.776Z,0.26
2018-03-02T06:00:09.184Z,0.31
2018-03-02T06:02:36.625Z,0.33
2018-03-02T06:05:04.063Z,0.37
2018-03-02T06:07:31.510Z,0.39
2018-03-02T06:09:58.910Z,0.37
2018-03-02T06:12:26.325Z,0.43
2018-03-02T06:14:53.844Z,0.50
2018-03-02T06:17:21.236Z,0.45
2018-03-02T06:19:48.623Z,0.39
2018-03-02T06:22:16.038Z,0.35
2018-03-02T06:24:43.781Z,0.47
2018-03-02T06:27:11.255Z,0.51
2018-03-02T06:29:38.728Z,0.49
2018-03-02T06:32:06.233Z,0.42
2018-03-02T06:34:34.099Z,0.38
2018-03-02T06:37:02.868Z,0.38
2018-03-02T06:39:30.319Z,0.39
2018-03-02T06:41:57.992Z,0.44
2018-03-02T06:44:25.420Z,0.47
2018-03-02T06:46:52.819Z,0.46
2018-03-02T06:49:20.211Z,0.61
2018-03-02T06:51:47.677Z,0.74
2018-03-02T06:54:15.115Z,0.71
2018-03-02T06:56:42.538Z,0.64
2018-03-02T06:59:10.268Z,0.61
2018-03-02T07:01:37.660Z,0.51
2018-03-02T07:04:05.099Z,0.37
2018-03-02T07:06:32.593Z,0.30
2018-03-02T07:09:01.434Z,0.37
2018-03-02T07:11:28.827Z,0.42
2018-03-02T07:13:56.323Z,0.39
2018-03-02T07:16:23.959Z,0.44
2018-03-02T07:18:51.365Z,0.56
2018-03-02T07:21:19.235Z,0.70
2018-03-02T07:23:46.710Z,0.81
2018-03-02T07:26:14.154Z,0.90
2018-03-02T07:28:41.731Z,0.97
2018-03-02T07:31:09.184Z,0.97
2018-03-02T07:33:36.689Z,0.90
2018-03-02T07:36:04.298Z,0.63
2018-03-02T07:38:31.780Z,0.53
2018-03-02T07:40:59.216Z,0.41
2018-03-02T07:43:26.702Z,0.40
2018-03-02T07:45:54.154Z,0.42
2018-03-02T07:48:21.532Z,0.40
2018-03-02T07:50:48.967Z,0.28
2018-03-02T07:53:16.391Z,0.23
2018-03-02T07:55:43.884Z,0.33
2018-03-02T07:58:11.296Z,0.36
2018-03-02T08:00:38.724Z,0.38
2018-03-02T08:03:07.028Z,0.43
2018-03-02T08:05:34.425Z,0.53
2018-03-02T08:08:01.996Z,0.65
2018-03-02T08:10:29.422Z,0.65
2018-03-02T08:12:57.018Z,0.68
2018-03-02T08:15:24.538Z,0.74
2018-03-02T08:17:51.932Z,0.76
2018-03-02T08:20:19.582Z,0.86
2018-03-02T08:22:46.997Z,0.95
2018-03-02T08:25:15.017Z,0.95
2018-03-02T08:27:42.936Z,0.91
2018-03-02T08:30:10.344Z,0.96
2018-03-02T08:32:37.792Z,0.94
2018-03-02T08:35:05.192Z,1.00
2018-03-02T08:37:32.719Z,1.12
2018-03-02T08:40:00.134Z,1.15
2018-03-02T08:42:27.570Z,1.13
2018-03-02T08:44:55.006Z,1.18
2018-03-02T08:47:22.407Z,1.15
2018-03-02T08:49:50.395Z,1.13
2018-03-02T08:52:18.229Z,1.03
2018-03-02T08:54:46.693Z,1.08
2018-03-02T08:57:14.136Z,1.09
2018-03-02T08:59:41.575Z,1.05
2018-03-02T09:02:09.050Z,1.03
2018-03-02T09:04:36.688Z,1.07
2018-03-02T09:07:04.080Z,1.14
2018-03-02T09:09:31.508Z,1.22
2018-03-02T09:11:58.964Z,1.24
2018-03-02T09:14:26.405Z,1.15
2018-03-02T09:16:53.891Z,1.02
2018-03-02T09:19:21.330Z,0.93
2018-03-02T09:21:48.853Z,1.16
2018-03-02T09:24:16.264Z,1.48
2018-03-02T09:26:43.760Z,1.52
2018-03-02T09:29:11.202Z,1.48
2018-03-02T09:31:38.653Z,1.52
2018-03-02T09:34:06.082Z,1.62
2018-03-02T09:36:33.557Z,1.75
2018-03-02T09:39:00.967Z,1.95
2018-03-02T09:41:28.375Z,2.19
2018-03-02T09:43:55.840Z,2.37
2018-03-02T09:46:23.264Z,2.44
2018-03-02T09:48:50.719Z,2.44
2018-03-02T09:51:18.144Z,2.43
2018-03-02T09:53:45.852Z,2.34
2018-03-02T09:56:13.305Z,2.29
2018-03-02T09:58:40.732Z,2.31
2018-03-02T10:01:08.178Z,2.34
2018-03-02T10:03:35.616Z,2.33
2018-03-02T10:06:03.083Z,2.43
2018-03-02T10:08:30.517Z,2.45
2018-03-02T10:10:57.937Z,2.47
2018-03-02T10:13:25.351Z,2.57
2018-03-02T10:15:52.783Z,2.61
2018-03-02T10:18:20.187Z,2.83
2018-03-02T10:20:47.629Z,2.99
2018-03-02T10:23:15.177Z,3.14
2018-03-02T10:25:42.685Z,3.22
2018-03-02T10:28:10.149Z,3.31
2018-03-02T10:30:37.542Z,3.21
2018-03-02T10:33:04.982Z,3.04
2018-03-02T10:35:32.450Z,3.01
2018-03-02T10:37:59.887Z,3.07
2018-03-02T10:40:27.325Z,3.17
2018-03-02T10:42:54.711Z,3.10
2018-03-02T10:45:23.391Z,3.18
2018-03-02T10:47:50.845Z,3.26
2018-03-02T10:50:18.256Z,3.29
2018-03-02T10:52:45.707Z,3.41
2018-03-02T10:55:13.334Z,3.55
2018-03-02T10:57:40.786Z,3.66
2018-03-02T11:00:08.242Z,3.79
2018-03-02T11:02:35.660Z,3.86
2018-03-02T11:05:08.717Z,3.91
2018-03-02T11:07:36.216Z,3.94
2018-03-02T11:10:03.797Z,3.87
2018-03-02T11:12:31.276Z,3.71
2018-03-02T11:14:59.614Z,3.65
2018-03-02T11:17:27.009Z,3.69
2018-03-02T11:19:54.524Z,3.80
2018-03-02T11:22:21.933Z,3.89
2018-03-02T11:24:49.407Z,3.98
2018-03-02T11:27:16.875Z,4.19
2018-03-02T11:29:44.296Z,4.23
2018-03-02T11:32:11.703Z,4.38
2018-03-02T11:34:40.198Z,4.40
2018-03-02T11:37:07.799Z,4.54
2018-03-02T11:39:35.233Z,4.56
2018-03-02T11:42:02.662Z,4.35
2018-03-02T11:44:30.052Z,4.30
2018-03-02T11:46:57.500Z,4.44
2018-03-02T11:49:24.933Z,4.30
2018-03-02T11:51:52.632Z,4.31
2018-03-02T11:54:20.012Z,4.22
2018-03-02T11:56:47.610Z,4.12
2018-03-02T11:59:15.002Z,4.08
2018-03-02T12:01:42.470Z,4.33
2018-03-02T12:04:10.132Z,4.51
2018-03-02T12:06:37.596Z,4.58
2018-03-02T12:09:05.107Z,4.58
2018-03-02T12:11:32.556Z,4.68
2018-03-02T12:13:59.965Z,4.84
2018-03-02T12:16:27.401Z,5.00
2018-03-02T12:18:54.794Z,5.26
2018-03-02T12:21:22.203Z,5.48
2018-03-02T12:23:49.603Z,5.69
2018-03-02T12:26:17.074Z,5.84
2018-03-02T12:28:44.508Z,6.07
2018-03-02T12:31:11.938Z,6.38
2018-03-02T12:33:39.323Z,6.52
2018-03-02T12:36:06.832Z,6.63
2018-03-02T12:38:34.279Z,6.66
2018-03-02T12:41:01.682Z,6.81
2018-03-02T12:43:29.234Z,7.06
2018-03-02T12:45:56.672Z,7.21
2018-03-02T12:48:24.121Z,7.27
2018-03-02T12:50:51.529Z,7.42
2018-03-02T12:53:18.973Z,7.57
2018-03-02T12:55:46.663Z,7.83
2018-03-02T12:58:14.103Z,7.88
2018-03-02T13:00:41.533Z,7.78
2018-03-02T13:03:09.009Z,7.95
2018-03-02T13:05:36.398Z,8.02
2018-03-02T13:08:05.779Z,7.97
2018-03-02T13:10:33.216Z,7.94
2018-03-02T13:13:00.633Z,8.05
2018-03-02T13:15:28.647Z,8.21
2018-03-02T13:17:56.063Z,8.35
2018-03-02T13:20:23.502Z,8.47
2018-03-02T13:22:50.894Z,8.69
2018-03-02T13:25:18.764Z,8.72
2018-03-02T13:27:58.048Z,8.83
2018-03-02T13:30:25.461Z,9.03
2018-03-02T13:33:04.686Z,9.13
2018-03-02T13:35:32.265Z,9.19
2018-03-02T13:37:59.660Z,9.33
2018-03-02T13:40:38.848Z,9.23
2018-03-02T13:43:06.248Z,8.70
2018-03-02T13:45:33.697Z,8.43
2018-03-02T13:51:09.304Z,8.49
2018-03-02T13:53:36.706Z,8.21
2018-03-02T13:56:04.125Z,7.90
2018-03-02T13:58:32.049Z,7.83
2018-03-02T14:00:59.840Z,7.88
2018-03-02T14:03:39.055Z,7.88
2018-03-02T14:06:06.544Z,7.63
2018-03-02T14:08:33.940Z,7.37
2018-03-02T14:11:01.367Z,7.32
2018-03-02T14:13:28.811Z,7.27
2018-03-02T14:15:56.206Z,7.33
2018-03-02T14:18:23.648Z,7.35
2018-03-02T14:20:51.073Z,7.47
2018-03-02T14:23:18.493Z,7.54
2018-03-02T14:25:45.883Z,7.48
2018-03-02T14:28:13.828Z,7.47
2018-03-02T14:30:41.264Z,7.53
2018-03-02T14:33:08.674Z,7.44
2018-03-02T14:35:36.140Z,7.44
2018-03-02T14:38:03.632Z,7.46
2018-03-02T14:40:31.125Z,7.40
2018-03-02T14:42:58.499Z,7.33
2018-03-02T14:45:25.953Z,7.35
2018-03-02T14:47:53.415Z,7.46
2018-03-02T14:50:20.868Z,7.57
2018-03-02T14:52:48.293Z,8.04
2018-03-02T14:55:15.893Z,8.35
2018-03-02T14:57:43.391Z,8.79
2018-03-02T15:00:10.847Z,9.52
2018-03-02T15:02:38.257Z,10.71
2018-03-02T15:05:05.696Z,11.07
2018-03-02T15:07:33.205Z,10.86
2018-03-02T15:10:00.621Z,9.84
2018-03-02T15:12:28.037Z,9.73
2018-03-02T15:14:56.010Z,10.22
2018-03-02T15:17:23.961Z,10.41
2018-03-02T15:19:52.376Z,10.11
2018-03-02T15:22:19.763Z,9.94
2018-03-02T15:24:47.534Z,9.64
2018-03-02T15:27:14.967Z,9.36
2018-03-02T15:29:42.540Z,9.36
2018-03-02T15:32:09.924Z,9.34
2018-03-02T15:34:37.492Z,9.44
2018-03-02T15:37:05.793Z,9.70
2018-03-02T15:39:33.505Z,10.05
2018-03-02T15:42:01.574Z,10.11
2018-03-02T15:44:29.072Z,10.50
2018-03-02T15:46:56.529Z,11.37
2018-03-02T15:49:24.817Z,13.72
2018-03-02T15:51:52.225Z,15.37
2018-03-02T15:54:19.647Z,14.90
2018-03-02T15:56:47.073Z,17.01
2018-03-02T15:59:14.550Z,19.36
2018-03-02T16:01:43.236Z,20.31
2018-03-02T16:04:10.652Z,21.17
2018-03-02T16:06:38.123Z,22.36
2018-03-02T16:09:05.520Z,22.30
2018-03-02T16:11:33.614Z,22.04
2018-03-02T16:14:01.048Z,20.38
2018-03-02T16:16:28.604Z,19.69
2018-03-02T16:18:56.023Z,20.90
2018-03-02T16:21:24.224Z,21.41
2018-03-02T16:23:51.690Z,20.75
2018-03-02T16:26:19.076Z,21.17
2018-03-02T16:28:46.530Z,20.10
2018-03-02T16:31:13.924Z,20.91
2018-03-02T16:33:41.426Z,22.24
2018-03-02T16:36:08.831Z,22.72
2018-03-02T16:38:36.264Z,22.76
2018-03-02T16:41:03.693Z,22.93
2018-03-02T16:43:31.136Z,22.46
2018-03-02T16:45:58.534Z,22.25
2018-03-02T16:48:25.956Z,21.87
2018-03-02T16:50:54.374Z,20.62
2018-03-02T16:53:21.767Z,19.54
2018-03-02T16:55:49.291Z,19.19
2018-03-02T16:58:16.840Z,18.72
2018-03-02T17:00:44.308Z,18.23
2018-03-02T17:03:12.307Z,15.97
2018-03-02T17:05:39.793Z,13.13
2018-03-02T17:08:07.192Z,11.58
2018-03-02T17:10:34.707Z,10.36
2018-03-02T17:13:02.128Z,9.57
2018-03-02T17:15:29.560Z,8.96
2018-03-02T17:17:56.969Z,8.51
2018-03-02T17:20:24.499Z,8.15
2018-03-02T17:22:51.949Z,7.78
2018-03-02T17:25:19.390Z,7.46
2018-03-02T17:27:46.940Z,7.20
2018-03-02T17:30:14.328Z,6.95
2018-03-02T17:32:42.164Z,6.75
2018-03-02T17:35:09.580Z,6.57
2018-03-02T17:37:37.013Z,6.41
2018-03-02T17:40:04.417Z,6.23
2018-03-02T17:42:31.829Z,6.06
2018-03-02T17:44:59.257Z,5.92
2018-03-02T17:47:26.677Z,5.80
2018-03-02T17:49:54.164Z,5.73
2018-03-02T17:52:21.677Z,5.68
2018-03-02T17:54:49.095Z,5.62
2018-03-02T17:57:16.479Z,5.58
2018-03-02T17:59:43.927Z,5.52
2018-03-02T18:02:11.355Z,5.47
2018-03-02T18:04:39.647Z,5.45
2018-03-02T18:07:07.188Z,5.42
2018-03-02T18:09:34.660Z,5.38
2018-03-02T18:12:02.058Z,5.34
2018-03-02T18:14:29.466Z,5.32
2018-03-02T18:16:56.892Z,5.29
2018-03-02T18:19:24.341Z,5.23
2018-03-02T18:21:51.836Z,5.13
2018-03-02T18:24:19.319Z,5.06
2018-03-02T18:26:46.715Z,5.04
2018-03-02T18:29:14.138Z,5.01
2018-03-02T18:31:41.565Z,4.94
2018-03-02T18:34:09.051Z,4.92
2018-03-02T18:36:36.476Z,4.90
2018-03-02T18:39:03.958Z,4.88
2018-03-02T18:41:31.490Z,4.80
2018-03-02T18:43:58.866Z,4.73
2018-03-02T18:46:26.266Z,4.63
2018-03-02T18:48:53.850Z,4.53
2018-03-02T18:51:21.312Z,4.50
2018-03-02T18:53:49.079Z,4.50
2018-03-02T18:56:16.524Z,4.43
2018-03-02T18:58:43.940Z,4.44
2018-03-02T19:01:11.328Z,4.44
2018-03-02T19:03:38.802Z,4.44
2018-03-02T19:06:06.488Z,4.38
2018-03-02T19:08:33.989Z,4.30
2018-03-02T19:11:01.693Z,4.21
2018-03-02T19:13:29.214Z,4.19
2018-03-02T19:15:56.636Z,4.20
2018-03-02T19:18:24.126Z,4.23
2018-03-02T19:20:51.545Z,4.16
2018-03-02T19:23:18.935Z,4.13
2018-03-02T19:25:46.516Z,4.06
2018-03-02T19:28:13.945Z,4.02
2018-03-02T19:30:41.345Z,3.99
2018-03-02T19:33:08.785Z,3.98
2018-03-02T19:35:36.262Z,3.95
2018-03-02T19:38:03.673Z,3.92
2018-03-02T19:40:31.099Z,3.90
2018-03-02T19:42:58.513Z,3.89
2018-03-02T19:45:26.872Z,3.84
2018-03-02T19:47:54.785Z,3.85
2018-03-02T19:50:22.404Z,3.88
2018-03-02T19:52:49.806Z,3.91
2018-03-02T19:55:17.345Z,3.89
2018-03-02T19:57:45.312Z,3.94
2018-03-02T20:00:12.751Z,3.95
2018-03-02T20:02:40.241Z,3.91
2018-03-02T20:05:07.653Z,3.93
2018-03-02T20:07:35.096Z,3.91
2018-03-02T20:10:02.548Z,3.78
2018-03-02T20:12:30.852Z,3.74
2018-03-02T20:14:58.286Z,3.69
2018-03-02T20:17:25.776Z,3.62
2018-03-02T20:19:53.228Z,3.58
2018-03-02T20:22:20.757Z,3.59
2018-03-02T20:24:48.230Z,3.57
2018-03-02T20:27:15.710Z,3.54
2018-03-02T20:29:43.190Z,3.52
2018-03-02T20:32:10.597Z,3.48
2018-03-02T20:34:38.034Z,3.41
2018-03-02T20:37:05.466Z,3.41
2018-03-02T20:39:32.890Z,3.40
2018-03-02T20:42:00.283Z,3.39
2018-03-02T20:44:27.681Z,3.34
2018-03-02T20:46:55.096Z,3.27
2018-03-02T20:49:22.538Z,3.23
2018-03-02T20:51:49.928Z,3.20
2018-03-02T20:54:17.495Z,3.20
2018-03-02T20:56:44.983Z,3.16
2018-03-02T20:59:12.412Z,3.13
2018-03-02T21:01:39.829Z,3.10
2018-03-02T21:04:07.235Z,3.05
2018-03-02T21:06:34.712Z,3.04
2018-03-02T21:09:02.142Z,3.07
2018-03-02T21:11:29.536Z,3.05
2018-03-02T21:13:57.218Z,3.07
2018-03-02T21:16:24.609Z,3.07
2018-03-02T21:18:52.014Z,2.98
2018-03-02T21:21:19.661Z,2.99
2018-03-02T21:23:47.158Z,2.95
2018-03-02T21:26:14.556Z,2.91
2018-03-02T21:28:42.172Z,2.87
2018-03-02T21:31:09.626Z,2.75
2018-03-02T21:33:37.100Z,2.68
2018-03-02T21:36:04.503Z,2.72
2018-03-02T21:38:32.285Z,2.78
2018-03-02T21:40:59.682Z,2.77
2018-03-02T21:43:27.087Z,2.69
2018-03-02T21:45:54.741Z,2.65
2018-03-02T21:48:22.260Z,2.65
2018-03-02T21:50:49.689Z,2.64
2018-03-02T21:53:17.176Z,2.60
2018-03-02T21:55:44.596Z,2.59
2018-03-02T21:58:12.065Z,2.61
2018-03-02T22:00:39.807Z,2.63
2018-03-02T22:03:07.375Z,2.65
2018-03-02T22:05:34.816Z,2.63
2018-03-02T22:08:02.277Z,2.57
2018-03-02T22:10:29.992Z,2.52
2018-03-02T22:12:57.446Z,2.53
2018-03-02T22:15:24.884Z,2.47
2018-03-02T22:17:52.342Z,2.35
2018-03-02T22:20:19.772Z,2.36
2018-03-02T22:22:47.224Z,2.39
2018-03-02T22:25:14.646Z,2.46
2018-03-02T22:27:42.284Z,2.50
2018-03-02T22:30:09.760Z,2.51
2018-03-02T22:32:37.237Z,2.52
2018-03-02T22:35:04.665Z,2.53
2018-03-02T22:37:32.049Z,2.52
2018-03-02T22:39:59.517Z,2.47
2018-03-02T22:42:26.969Z,2.42
2018-03-02T22:44:54.390Z,2.30
2018-03-02T22:47:21.826Z,2.17
2018-03-02T22:49:49.253Z,2.06
2018-03-02T22:52:16.653Z,2.07
2018-03-02T22:54:44.052Z,2.10
2018-03-02T22:57:11.489Z,2.14
2018-03-02T22:59:38.958Z,2.13
2018-03-02T23:02:06.561Z,2.04
2018-03-02T23:04:33.949Z,1.94
2018-03-02T23:07:01.421Z,1.87
2018-03-02T23:09:28.818Z,1.85
2018-03-02T23:11:56.263Z,1.81
2018-03-02T23:14:23.680Z,1.83
2018-03-02T23:16:51.087Z,1.83
2018-03-02T23:19:18.487Z,1.82
2018-03-02T23:21:45.883Z,1.78
2018-03-02T23:24:13.529Z,1.70
2018-03-02T23:26:40.994Z,1.52
2018-03-02T23:29:08.436Z,1.40
2018-03-02T23:31:35.904Z,1.28
2018-03-02T23:34:03.444Z,1.23
2018-03-02T23:36:30.904Z,1.18
2018-03-02T23:38:58.332Z,1.22
2018-03-02T23:41:25.773Z,1.21
2018-03-02T23:43:53.251Z,1.16
2018-03-02T23:46:21.247Z,1.11
2018-03-02T23:48:48.681Z,1.02
2018-03-02T23:51:16.074Z,0.96
2018-03-02T23:53:43.629Z,0.96
2018-03-02T23:56:11.019Z,1.01
2018-03-02T23:58:38.431Z,1.10
